SVR234 URSS-UUDD
Flight info
| Callsign | SVR234 |
|---|---|
| Flight time | N/A |
| Altitude | 35000 |
| Route | K0828F350 IRGID1D IRGID A944 BEMES R227 KZ DCT DITEK/K0832F360 N50 OBABI/K0824F370 T619 LUGIL/K0817F360 T619 UMRAL DCT LAMKO DCT GOLRI L736 OLOPI OLOPI3N |
| Aircraft | A321/M-SDE3FGHIRWY/LB1 |
Departure
| Time | 2026-05-06 09:22 |
|---|---|
| Airport | Sochi International Airport (URSS) |
Arrival
| Time | N/A |
|---|---|
| Airport | Domodedovo International Airport (UUDD) |
| Time | Latitude | Longitude | Altitude | Speed | Heading |
|---|---|---|---|---|---|
| 2026-05-06 09:21 | 43.43081 | 39.60172 | 9156 ft | 286 kts | 339° |
| 2026-05-06 09:22 | 43.44941 | 39.59173 | 9849 ft | 289 kts | 339° |
| 2026-05-06 09:22 | 43.46827 | 39.58151 | 10438 ft | 298 kts | 338° |
| 2026-05-06 09:22 | 43.48824 | 39.57062 | 10585 ft | 320 kts | 338° |
| 2026-05-06 09:22 | 43.50959 | 39.55895 | 10835 ft | 337 kts | 338° |
| 2026-05-06 09:23 | 43.53161 | 39.54689 | 11411 ft | 343 kts | 338° |
| 2026-05-06 09:23 | 43.55386 | 39.53468 | 12062 ft | 346 kts | 338° |
| 2026-05-06 09:23 | 43.57627 | 39.52237 | 12711 ft | 349 kts | 338° |
| 2026-05-06 09:23 | 43.59918 | 39.51084 | 13322 ft | 352 kts | 345° |
| 2026-05-06 09:24 | 43.62343 | 39.50535 | 13923 ft | 356 kts | 357° |
| 2026-05-06 09:24 | 43.64821 | 39.50748 | 14507 ft | 359 kts | 11° |
| 2026-05-06 09:24 | 43.67215 | 39.51790 | 15094 ft | 363 kts | 24° |
| 2026-05-06 09:24 | 43.69409 | 39.53535 | 15686 ft | 367 kts | 36° |
| 2026-05-06 09:25 | 43.71303 | 39.55906 | 16256 ft | 370 kts | 49° |
| 2026-05-06 09:25 | 43.72769 | 39.58834 | 16819 ft | 373 kts | 63° |
| 2026-05-06 09:25 | 43.73689 | 39.62192 | 17365 ft | 376 kts | 77° |
| 2026-05-06 09:25 | 43.74230 | 39.65740 | 17924 ft | 378 kts | 78° |
| 2026-05-06 09:26 | 43.74763 | 39.69319 | 18472 ft | 381 kts | 78° |
| 2026-05-06 09:26 | 43.75301 | 39.72923 | 19009 ft | 384 kts | 78° |
| 2026-05-06 09:26 | 43.75844 | 39.76551 | 19541 ft | 387 kts | 78° |
| 2026-05-06 09:26 | 43.76392 | 39.80208 | 20063 ft | 390 kts | 78° |
| 2026-05-06 09:27 | 43.76945 | 39.83889 | 20589 ft | 392 kts | 78° |
| 2026-05-06 09:27 | 43.77501 | 39.87602 | 21091 ft | 395 kts | 78° |
| 2026-05-06 09:27 | 43.78050 | 39.91287 | 21581 ft | 397 kts | 78° |
| 2026-05-06 09:27 | 43.78586 | 39.95050 | 22063 ft | 400 kts | 79° |
| 2026-05-06 09:28 | 43.79087 | 39.98852 | 22537 ft | 403 kts | 80° |
| 2026-05-06 09:28 | 43.79570 | 40.02677 | 23002 ft | 405 kts | 80° |
| 2026-05-06 09:28 | 43.80049 | 40.06526 | 23454 ft | 407 kts | 80° |
| 2026-05-06 09:28 | 43.80534 | 40.10399 | 23869 ft | 409 kts | 80° |
| 2026-05-06 09:29 | 43.81027 | 40.14294 | 24289 ft | 412 kts | 80° |
| 2026-05-06 09:29 | 43.81523 | 40.18206 | 24689 ft | 414 kts | 80° |
| 2026-05-06 09:29 | 43.82024 | 40.22135 | 25090 ft | 416 kts | 80° |
| 2026-05-06 09:29 | 43.82529 | 40.26094 | 25485 ft | 418 kts | 80° |
| 2026-05-06 09:30 | 43.83034 | 40.30067 | 25880 ft | 420 kts | 80° |
| 2026-05-06 09:30 | 43.83376 | 40.32760 | 26139 ft | 421 kts | 80° |
| 2026-05-06 09:30 | 43.83883 | 40.36765 | 26509 ft | 423 kts | 80° |
| 2026-05-06 09:30 | 43.84390 | 40.40786 | 26871 ft | 425 kts | 80° |
| 2026-05-06 09:31 | 43.84899 | 40.44829 | 27229 ft | 427 kts | 80° |
| 2026-05-06 09:31 | 43.85406 | 40.48887 | 27571 ft | 429 kts | 81° |
| 2026-05-06 09:31 | 43.85914 | 40.52968 | 27931 ft | 430 kts | 81° |
| 2026-05-06 09:31 | 43.86420 | 40.57057 | 28247 ft | 432 kts | 81° |
| 2026-05-06 09:32 | 43.86928 | 40.61173 | 28568 ft | 434 kts | 81° |
| 2026-05-06 09:32 | 43.87437 | 40.65309 | 28882 ft | 436 kts | 81° |
| 2026-05-06 09:32 | 43.87946 | 40.69458 | 29189 ft | 438 kts | 81° |
| 2026-05-06 09:32 | 43.88262 | 40.73658 | 29495 ft | 439 kts | 87° |
| 2026-05-06 09:33 | 43.88445 | 40.77837 | 29782 ft | 440 kts | 87° |
| 2026-05-06 09:33 | 43.88631 | 40.82135 | 30078 ft | 442 kts | 87° |
| 2026-05-06 09:33 | 43.88814 | 40.86396 | 30356 ft | 444 kts | 87° |
| 2026-05-06 09:33 | 43.88999 | 40.90676 | 30610 ft | 446 kts | 86° |
| 2026-05-06 09:34 | 43.89184 | 40.94987 | 30862 ft | 449 kts | 87° |
| 2026-05-06 09:34 | 43.89366 | 40.99255 | 31198 ft | 449 kts | 87° |
| 2026-05-06 09:34 | 43.89553 | 41.03571 | 31551 ft | 449 kts | 87° |
| 2026-05-06 09:34 | 43.89739 | 41.07892 | 31884 ft | 449 kts | 87° |
| 2026-05-06 09:35 | 43.89923 | 41.12220 | 32212 ft | 449 kts | 87° |
| 2026-05-06 09:35 | 43.90105 | 41.16559 | 32518 ft | 450 kts | 87° |
| 2026-05-06 09:35 | 43.90281 | 41.20897 | 32814 ft | 450 kts | 87° |
| 2026-05-06 09:35 | 43.90456 | 41.25236 | 33095 ft | 450 kts | 87° |
| 2026-05-06 09:36 | 43.90631 | 41.29579 | 33376 ft | 451 kts | 87° |
| 2026-05-06 09:36 | 43.90804 | 41.33924 | 33649 ft | 451 kts | 87° |
| 2026-05-06 09:36 | 43.90974 | 41.38225 | 33919 ft | 451 kts | 87° |
| 2026-05-06 09:36 | 43.91143 | 41.42579 | 34186 ft | 451 kts | 87° |
| 2026-05-06 09:37 | 43.91310 | 41.46954 | 34447 ft | 452 kts | 87° |
| 2026-05-06 09:37 | 43.91475 | 41.51315 | 34696 ft | 452 kts | 87° |
| 2026-05-06 09:37 | 43.91638 | 41.55622 | 34939 ft | 453 kts | 87° |
| 2026-05-06 09:37 | 43.91802 | 41.59987 | 35074 ft | 453 kts | 88° |
| 2026-05-06 09:38 | 43.91961 | 41.64346 | 35106 ft | 451 kts | 88° |
| 2026-05-06 09:38 | 43.92263 | 41.73041 | 35102 ft | 450 kts | 88° |
| 2026-05-06 09:39 | 43.92551 | 41.81730 | 35100 ft | 450 kts | 88° |
| 2026-05-06 09:39 | 43.92838 | 41.90401 | 35064 ft | 450 kts | 88° |
| 2026-05-06 09:40 | 43.93129 | 41.99038 | 35066 ft | 450 kts | 88° |
| 2026-05-06 09:40 | 43.93546 | 42.12062 | 35073 ft | 450 kts | 88° |
| 2026-05-06 09:41 | 43.93809 | 42.20739 | 35075 ft | 450 kts | 88° |
| 2026-05-06 09:41 | 43.94072 | 42.29428 | 35077 ft | 450 kts | 88° |
| 2026-05-06 09:42 | 43.94321 | 42.38057 | 35075 ft | 451 kts | 88° |
| 2026-05-06 09:42 | 43.94571 | 42.46758 | 35076 ft | 452 kts | 88° |
| 2026-05-06 09:43 | 43.94814 | 42.55471 | 35069 ft | 453 kts | 88° |
| 2026-05-06 09:43 | 43.95036 | 42.64212 | 35078 ft | 453 kts | 89° |
| 2026-05-06 09:44 | 43.95125 | 42.72954 | 35078 ft | 453 kts | 90° |
| 2026-05-06 09:44 | 43.95126 | 42.81688 | 35079 ft | 452 kts | 91° |
| 2026-05-06 09:45 | 43.95130 | 42.90430 | 35077 ft | 453 kts | 90° |
| 2026-05-06 09:45 | 43.95156 | 42.99165 | 35077 ft | 453 kts | 90° |
| 2026-05-06 09:46 | 43.95178 | 43.07905 | 35074 ft | 453 kts | 91° |
| 2026-05-06 09:46 | 43.95189 | 43.16641 | 35073 ft | 453 kts | 91° |
| 2026-05-06 09:47 | 43.95197 | 43.25376 | 35075 ft | 453 kts | 91° |
| 2026-05-06 09:47 | 43.95199 | 43.34108 | 35066 ft | 452 kts | 91° |
| 2026-05-06 09:48 | 43.95190 | 43.42831 | 35069 ft | 452 kts | 91° |
| 2026-05-06 09:48 | 43.95179 | 43.51558 | 35067 ft | 452 kts | 91° |
| 2026-05-06 09:49 | 43.95160 | 43.60269 | 35067 ft | 452 kts | 91° |
| 2026-05-06 09:49 | 43.95134 | 43.68986 | 35066 ft | 451 kts | 91° |
| 2026-05-06 09:50 | 43.95096 | 43.77630 | 35063 ft | 451 kts | 91° |
| 2026-05-06 09:50 | 43.95049 | 43.86335 | 35062 ft | 451 kts | 91° |
| 2026-05-06 09:51 | 43.95000 | 43.95028 | 35059 ft | 450 kts | 91° |
| 2026-05-06 09:51 | 43.94957 | 44.03712 | 35054 ft | 450 kts | 91° |
| 2026-05-06 09:52 | 43.94905 | 44.12402 | 35054 ft | 450 kts | 91° |
| 2026-05-06 09:52 | 43.94837 | 44.21090 | 35057 ft | 450 kts | 92° |
| 2026-05-06 09:53 | 43.94763 | 44.29782 | 35063 ft | 451 kts | 92° |
| 2026-05-06 09:53 | 43.94684 | 44.38484 | 35062 ft | 451 kts | 92° |
| 2026-05-06 09:54 | 43.94600 | 44.47182 | 35061 ft | 451 kts | 92° |
| 2026-05-06 09:54 | 43.94510 | 44.55894 | 35060 ft | 451 kts | 92° |
| 2026-05-06 09:55 | 43.94406 | 44.64620 | 35057 ft | 452 kts | 92° |
| 2026-05-06 09:55 | 43.94299 | 44.73303 | 35060 ft | 453 kts | 92° |
| 2026-05-06 09:56 | 43.94189 | 44.82052 | 35059 ft | 453 kts | 92° |
| 2026-05-06 09:56 | 43.94070 | 44.90798 | 35060 ft | 453 kts | 92° |
| 2026-05-06 09:57 | 43.93940 | 44.99553 | 35057 ft | 453 kts | 92° |
| 2026-05-06 09:57 | 43.93808 | 45.08261 | 35054 ft | 454 kts | 93° |
| 2026-05-06 09:58 | 43.93673 | 45.17033 | 35051 ft | 454 kts | 93° |
| 2026-05-06 09:58 | 43.93527 | 45.25810 | 35045 ft | 453 kts | 93° |
| 2026-05-06 09:59 | 43.93368 | 45.34506 | 35046 ft | 453 kts | 93° |
| 2026-05-06 09:59 | 43.93211 | 45.43263 | 35045 ft | 453 kts | 93° |
| 2026-05-06 10:00 | 43.93049 | 45.52016 | 35046 ft | 453 kts | 93° |
| 2026-05-06 10:00 | 43.92876 | 45.60727 | 35046 ft | 453 kts | 93° |
| 2026-05-06 10:01 | 43.92696 | 45.69492 | 35049 ft | 453 kts | 94° |
| 2026-05-06 10:01 | 43.92515 | 45.78186 | 35046 ft | 453 kts | 94° |
| 2026-05-06 10:02 | 43.92321 | 45.86958 | 35048 ft | 453 kts | 94° |
| 2026-05-06 10:02 | 43.91628 | 45.95629 | 35043 ft | 451 kts | 100° |
| 2026-05-06 10:03 | 43.90720 | 46.04190 | 35043 ft | 451 kts | 100° |
| 2026-05-06 10:03 | 43.89817 | 46.12802 | 35045 ft | 451 kts | 100° |
| 2026-05-06 10:04 | 43.88910 | 46.21412 | 35042 ft | 451 kts | 100° |
| 2026-05-06 10:04 | 43.87988 | 46.29979 | 35038 ft | 451 kts | 100° |
| 2026-05-06 10:05 | 43.87066 | 46.38577 | 35033 ft | 451 kts | 100° |
| 2026-05-06 10:05 | 43.86138 | 46.47196 | 35029 ft | 451 kts | 100° |
| 2026-05-06 10:06 | 43.85205 | 46.55750 | 35023 ft | 451 kts | 101° |
| 2026-05-06 10:06 | 43.84273 | 46.64360 | 35017 ft | 452 kts | 97° |
| 2026-05-06 10:07 | 43.84707 | 46.73027 | 35019 ft | 458 kts | 77° |
| 2026-05-06 10:07 | 43.87188 | 46.81176 | 35009 ft | 461 kts | 64° |
| 2026-05-06 10:08 | 43.90180 | 46.89070 | 35006 ft | 463 kts | 64° |
| 2026-05-06 10:08 | 43.93162 | 46.97001 | 35005 ft | 463 kts | 64° |
| 2026-05-06 10:09 | 43.96135 | 47.04941 | 35008 ft | 464 kts | 64° |
| 2026-05-06 10:09 | 43.99097 | 47.12861 | 35000 ft | 464 kts | 64° |
| 2026-05-06 10:10 | 44.02088 | 47.20830 | 35012 ft | 464 kts | 64° |
| 2026-05-06 10:10 | 44.05049 | 47.28769 | 35019 ft | 464 kts | 64° |
| 2026-05-06 10:11 | 44.08008 | 47.36758 | 35004 ft | 464 kts | 64° |
| 2026-05-06 10:11 | 44.10961 | 47.44732 | 35003 ft | 464 kts | 64° |
| 2026-05-06 10:12 | 44.13903 | 47.52690 | 35008 ft | 464 kts | 65° |
| 2026-05-06 10:12 | 44.16842 | 47.60691 | 35006 ft | 464 kts | 65° |
| 2026-05-06 10:13 | 44.19785 | 47.68705 | 34997 ft | 464 kts | 65° |
| 2026-05-06 10:13 | 44.22710 | 47.76687 | 34986 ft | 464 kts | 65° |
| 2026-05-06 10:14 | 44.25635 | 47.84715 | 34985 ft | 464 kts | 65° |
| 2026-05-06 10:14 | 44.28569 | 47.92766 | 34986 ft | 465 kts | 65° |
| 2026-05-06 10:15 | 44.31620 | 48.00735 | 34975 ft | 465 kts | 54° |
| 2026-05-06 10:15 | 44.33015 | 48.03006 | 34974 ft | 467 kts | 43° |
| 2026-05-06 10:15 | 44.36616 | 48.06258 | 34965 ft | 466 kts | 20° |
| 2026-05-06 10:16 | 44.39760 | 48.07318 | 34956 ft | 464 kts | 3° |
| 2026-05-06 10:16 | 44.42966 | 48.07091 | 34939 ft | 461 kts | 346° |
| 2026-05-06 10:16 | 44.45974 | 48.05643 | 34933 ft | 457 kts | 333° |
| 2026-05-06 10:16 | 44.47884 | 48.04387 | 34932 ft | 457 kts | 333° |
| 2026-05-06 10:17 | 44.53660 | 48.00578 | 34925 ft | 459 kts | 333° |
| 2026-05-06 10:17 | 44.59476 | 47.96756 | 34931 ft | 461 kts | 333° |
| 2026-05-06 10:18 | 44.65264 | 47.92939 | 34930 ft | 461 kts | 333° |
| 2026-05-06 10:18 | 44.71070 | 47.89081 | 34940 ft | 461 kts | 333° |
| 2026-05-06 10:19 | 44.76846 | 47.85234 | 34946 ft | 461 kts | 333° |
| 2026-05-06 10:19 | 44.82647 | 47.81364 | 34947 ft | 461 kts | 333° |
| 2026-05-06 10:20 | 44.88451 | 47.77493 | 34949 ft | 461 kts | 333° |
| 2026-05-06 10:20 | 44.94259 | 47.73612 | 34955 ft | 461 kts | 333° |
| 2026-05-06 10:21 | 45.00013 | 47.69750 | 34951 ft | 460 kts | 333° |
| 2026-05-06 10:21 | 45.05798 | 47.65855 | 34954 ft | 460 kts | 333° |
| 2026-05-06 10:22 | 45.11575 | 47.61957 | 34957 ft | 459 kts | 333° |
| 2026-05-06 10:22 | 45.17349 | 47.58053 | 34956 ft | 459 kts | 333° |
| 2026-05-06 10:23 | 45.23095 | 47.54168 | 34959 ft | 459 kts | 333° |
| 2026-05-06 10:23 | 45.28882 | 47.50244 | 34956 ft | 459 kts | 333° |
| 2026-05-06 10:24 | 45.34640 | 47.46333 | 34956 ft | 458 kts | 333° |
| 2026-05-06 10:24 | 45.40367 | 47.42439 | 34953 ft | 458 kts | 333° |
| 2026-05-06 10:25 | 45.46122 | 47.38505 | 34948 ft | 458 kts | 333° |
| 2026-05-06 10:25 | 45.51873 | 47.34570 | 34940 ft | 458 kts | 333° |
| 2026-05-06 10:26 | 45.57584 | 47.30663 | 34944 ft | 457 kts | 333° |
| 2026-05-06 10:26 | 45.63314 | 47.26718 | 34936 ft | 457 kts | 333° |
| 2026-05-06 10:27 | 45.69052 | 47.22739 | 34933 ft | 457 kts | 332° |
| 2026-05-06 10:27 | 45.74732 | 47.18743 | 34938 ft | 457 kts | 332° |
| 2026-05-06 10:28 | 45.80452 | 47.14705 | 34936 ft | 457 kts | 332° |
| 2026-05-06 10:28 | 45.86170 | 47.10673 | 34942 ft | 457 kts | 332° |
| 2026-05-06 10:29 | 45.91844 | 47.06666 | 34942 ft | 457 kts | 332° |
| 2026-05-06 10:29 | 45.97510 | 47.02494 | 34943 ft | 456 kts | 330° |
| 2026-05-06 10:30 | 46.03092 | 46.98110 | 34940 ft | 456 kts | 330° |
| 2026-05-06 10:30 | 46.08663 | 46.93699 | 34942 ft | 456 kts | 330° |
| 2026-05-06 10:31 | 46.14205 | 46.89373 | 34941 ft | 455 kts | 330° |
| 2026-05-06 10:31 | 46.19787 | 46.85036 | 34933 ft | 454 kts | 331° |
| 2026-05-06 10:32 | 46.25424 | 46.80986 | 34942 ft | 455 kts | 334° |
| 2026-05-06 10:32 | 46.31192 | 46.77209 | 34936 ft | 455 kts | 335° |
| 2026-05-06 10:33 | 46.36978 | 46.73420 | 34932 ft | 455 kts | 334° |
| 2026-05-06 10:33 | 46.42722 | 46.69534 | 34933 ft | 455 kts | 334° |
| 2026-05-06 10:34 | 46.48421 | 46.65626 | 34931 ft | 455 kts | 334° |
| 2026-05-06 10:34 | 46.54156 | 46.61692 | 34925 ft | 455 kts | 334° |
| 2026-05-06 10:35 | 46.59860 | 46.57783 | 34929 ft | 455 kts | 334° |
| 2026-05-06 10:35 | 46.65601 | 46.53867 | 34923 ft | 455 kts | 334° |
| 2026-05-06 10:36 | 46.71329 | 46.49931 | 34925 ft | 455 kts | 334° |
| 2026-05-06 10:36 | 46.77057 | 46.45977 | 34932 ft | 455 kts | 334° |
| 2026-05-06 10:37 | 46.82778 | 46.42031 | 34948 ft | 454 kts | 334° |
| 2026-05-06 10:37 | 46.88462 | 46.38097 | 34942 ft | 454 kts | 334° |
| 2026-05-06 10:38 | 46.94182 | 46.34127 | 34934 ft | 454 kts | 334° |
| 2026-05-06 10:38 | 46.99894 | 46.30148 | 34933 ft | 453 kts | 334° |
| 2026-05-06 10:39 | 47.05555 | 46.26189 | 34934 ft | 453 kts | 334° |
| 2026-05-06 10:39 | 47.11268 | 46.22198 | 34941 ft | 454 kts | 334° |
| 2026-05-06 10:40 | 47.16973 | 46.18200 | 34937 ft | 454 kts | 334° |
| 2026-05-06 10:40 | 47.22671 | 46.14198 | 34942 ft | 453 kts | 334° |
| 2026-05-06 10:41 | 47.28330 | 46.10207 | 34941 ft | 453 kts | 334° |
| 2026-05-06 10:41 | 47.34024 | 46.06177 | 34949 ft | 453 kts | 334° |
| 2026-05-06 10:42 | 47.39685 | 46.02171 | 34950 ft | 452 kts | 334° |
| 2026-05-06 10:42 | 47.45372 | 45.98146 | 34949 ft | 452 kts | 334° |
| 2026-05-06 10:43 | 47.51014 | 45.94148 | 34950 ft | 452 kts | 334° |
| 2026-05-06 10:44 | 47.59521 | 45.88091 | 34956 ft | 452 kts | 334° |
| 2026-05-06 10:44 | 47.65194 | 45.84047 | 34958 ft | 452 kts | 335° |
| 2026-05-06 10:45 | 47.70872 | 45.79987 | 34958 ft | 452 kts | 334° |
| 2026-05-06 10:45 | 47.76507 | 45.75943 | 34960 ft | 452 kts | 334° |
| 2026-05-06 10:46 | 47.82175 | 45.71866 | 34965 ft | 452 kts | 334° |
| 2026-05-06 10:46 | 47.87847 | 45.67792 | 34965 ft | 452 kts | 334° |
| 2026-05-06 10:47 | 47.93507 | 45.63716 | 34965 ft | 452 kts | 334° |
| 2026-05-06 10:47 | 47.99133 | 45.59648 | 34966 ft | 451 kts | 334° |
| 2026-05-06 10:48 | 48.04796 | 45.55531 | 34970 ft | 451 kts | 334° |
| 2026-05-06 10:48 | 48.10450 | 45.51425 | 34972 ft | 451 kts | 334° |
| 2026-05-06 10:49 | 48.16059 | 45.47334 | 34977 ft | 451 kts | 334° |
| 2026-05-06 10:49 | 48.21717 | 45.43207 | 34983 ft | 451 kts | 334° |
| 2026-05-06 10:50 | 48.27341 | 45.39088 | 34983 ft | 451 kts | 334° |
| 2026-05-06 10:50 | 48.32984 | 45.34930 | 34986 ft | 451 kts | 334° |
| 2026-05-06 10:51 | 48.38617 | 45.30759 | 34983 ft | 450 kts | 333° |
| 2026-05-06 10:51 | 48.43789 | 45.25427 | 34981 ft | 450 kts | 322° |
| 2026-05-06 10:52 | 48.48715 | 45.19675 | 34987 ft | 450 kts | 322° |
| 2026-05-06 10:52 | 48.53681 | 45.13880 | 34985 ft | 450 kts | 322° |
| 2026-05-06 10:53 | 48.58611 | 45.08108 | 34994 ft | 450 kts | 322° |
| 2026-05-06 10:53 | 48.63560 | 45.02287 | 34987 ft | 450 kts | 322° |
| 2026-05-06 10:54 | 48.68497 | 44.96459 | 34982 ft | 450 kts | 322° |
| 2026-05-06 10:54 | 48.73428 | 44.90627 | 34985 ft | 449 kts | 322° |
| 2026-05-06 10:55 | 48.78330 | 44.84811 | 34984 ft | 449 kts | 322° |
| 2026-05-06 10:55 | 48.83262 | 44.78941 | 34987 ft | 449 kts | 322° |
| 2026-05-06 10:56 | 48.88143 | 44.72989 | 34996 ft | 450 kts | 321° |
| 2026-05-06 10:56 | 48.92932 | 44.66963 | 34996 ft | 449 kts | 321° |
| 2026-05-06 10:57 | 48.97744 | 44.60872 | 34987 ft | 449 kts | 321° |
| 2026-05-06 10:57 | 49.02580 | 44.54782 | 34986 ft | 449 kts | 321° |
| 2026-05-06 10:58 | 49.07373 | 44.48760 | 34987 ft | 449 kts | 321° |
| 2026-05-06 10:58 | 49.12198 | 44.42682 | 34992 ft | 449 kts | 321° |
| 2026-05-06 10:59 | 49.17021 | 44.36575 | 34994 ft | 449 kts | 321° |
| 2026-05-06 10:59 | 49.21813 | 44.30487 | 34976 ft | 449 kts | 321° |
| 2026-05-06 11:00 | 49.26593 | 44.24394 | 34984 ft | 449 kts | 321° |
| 2026-05-06 11:00 | 49.31397 | 44.18259 | 34999 ft | 448 kts | 321° |
| 2026-05-06 11:01 | 49.36187 | 44.12131 | 34984 ft | 448 kts | 321° |
| 2026-05-06 11:01 | 49.40949 | 44.06017 | 34992 ft | 448 kts | 321° |
| 2026-05-06 11:02 | 49.45741 | 43.99869 | 34988 ft | 447 kts | 321° |
| 2026-05-06 11:02 | 49.49713 | 43.94754 | 34997 ft | 447 kts | 321° |
| 2026-05-06 11:02 | 49.53064 | 43.91087 | 34984 ft | 445 kts | 332° |
| 2026-05-06 11:03 | 49.54902 | 43.89546 | 34992 ft | 444 kts | 333° |
| 2026-05-06 11:03 | 49.60320 | 43.85026 | 34995 ft | 445 kts | 333° |
| 2026-05-06 11:04 | 49.65766 | 43.80456 | 34989 ft | 445 kts | 332° |
| 2026-05-06 11:04 | 49.71175 | 43.75901 | 34997 ft | 444 kts | 332° |
| 2026-05-06 11:05 | 49.76613 | 43.71307 | 34988 ft | 444 kts | 332° |
| 2026-05-06 11:05 | 49.82028 | 43.66730 | 34985 ft | 444 kts | 332° |
| 2026-05-06 11:06 | 49.87457 | 43.62138 | 34986 ft | 444 kts | 332° |
| 2026-05-06 11:06 | 49.92843 | 43.57560 | 34987 ft | 444 kts | 332° |
| 2026-05-06 11:07 | 49.98272 | 43.52935 | 34987 ft | 444 kts | 332° |
| 2026-05-06 11:07 | 50.03697 | 43.48305 | 34989 ft | 444 kts | 332° |
| 2026-05-06 11:08 | 50.06404 | 43.45979 | 34985 ft | 444 kts | 332° |